Time,TemperatureF,DewpointF,PressureIn,WindDirection,WindDirectionDegrees,WindSpeedMPH,WindSpeedGustMPH,Humidity,HourlyPrecipIn,Conditions,Clouds,dailyrainin,SoftwareType,DateUTC
2014-10-22 00:00:00,56.8,49.0,30.05,South,177,1.0,3.0,75,0.00,,,0.00,Wunderground v.1.15,2014-10-22 06:00:00,
2014-10-22 00:05:00,56.8,49.3,30.05,South,177,1.0,3.0,76,0.00,,,0.00,Wunderground v.1.15,2014-10-22 06:05:00,
2014-10-22 00:15:00,56.8,49.3,30.05,South,177,1.0,3.0,76,0.00,,,0.00,Wunderground v.1.15,2014-10-22 06:15:00,
2014-10-22 00:20:00,56.9,49.4,30.05,South,177,1.0,3.0,76,0.00,,,0.00,Wunderground v.1.15,2014-10-22 06:20:00,
2014-10-22 00:30:00,57.2,49.3,30.05,South,177,2.0,4.0,75,0.00,,,0.00,Wunderground v.1.15,2014-10-22 06:30:00,
2014-10-22 00:40:00,57.4,49.5,30.05,South,177,1.0,1.0,75,0.00,,,0.00,Wunderground v.1.15,2014-10-22 06:40:00,
2014-10-22 00:45:00,57.4,49.5,30.05,South,177,0.0,2.0,75,0.00,,,0.00,Wunderground v.1.15,2014-10-22 06:45:00,
2014-10-22 00:55:00,57.4,49.5,30.05,South,177,0.0,3.0,75,0.00,,,0.00,Wunderground v.1.15,2014-10-22 06:55:00,
2014-10-22 01:00:00,57.4,49.9,30.05,South,177,0.0,3.0,76,0.00,,,0.00,Wunderground v.1.15,2014-10-22 07:00:00,
2014-10-22 01:10:00,57.3,49.8,30.05,South,177,0.0,3.0,76,0.00,,,0.00,Wunderground v.1.15,2014-10-22 07:10:00,
2014-10-22 01:20:00,57.1,50.0,30.06,South,177,0.0,3.0,77,0.00,,,0.00,Wunderground v.1.15,2014-10-22 07:20:00,
2014-10-22 01:30:00,56.8,50.0,30.06,South,177,0.0,0.0,78,0.00,,,0.00,Wunderground v.1.15,2014-10-22 07:30:00,
2014-10-22 01:40:00,56.7,49.9,30.06,South,177,0.0,2.0,78,0.00,,,0.00,Wunderground v.1.15,2014-10-22 07:40:00,
2014-10-22 01:50:00,56.8,50.0,30.06,South,177,0.0,2.0,78,0.00,,,0.00,Wunderground v.1.15,2014-10-22 07:50:00,
2014-10-22 01:55:00,56.7,49.9,30.06,South,177,0.0,2.0,78,0.00,,,0.00,Wunderground v.1.15,2014-10-22 07:55:00,
2014-10-22 02:00:00,57.0,49.9,30.06,South,177,0.0,2.0,77,0.00,,,0.00,Wunderground v.1.15,2014-10-22 08:00:00,
2014-10-22 02:05:00,57.0,49.9,30.06,South,177,0.0,2.0,77,0.00,,,0.00,Wunderground v.1.15,2014-10-22 08:05:00,
2014-10-22 02:15:00,56.9,49.8,30.06,South,177,0.0,2.0,77,0.00,,,0.00,Wunderground v.1.15,2014-10-22 08:15:00,
2014-10-22 02:25:00,56.7,49.9,30.06,South,177,0.0,2.0,78,0.00,,,0.00,Wunderground v.1.15,2014-10-22 08:25:00,
2014-10-22 02:30:00,56.5,50.1,30.06,South,177,0.0,0.0,79,0.00,,,0.00,Wunderground v.1.15,2014-10-22 08:30:00,
2014-10-22 02:40:00,56.2,49.8,30.07,South,177,0.0,0.0,79,0.00,,,0.00,Wunderground v.1.15,2014-10-22 08:40:00,
2014-10-22 02:50:00,55.9,49.8,30.07,South,177,0.0,0.0,80,0.00,,,0.00,Wunderground v.1.15,2014-10-22 08:50:00,
2014-10-22 03:00:00,55.7,49.6,30.06,South,177,1.0,1.0,80,0.00,,,0.00,Wunderground v.1.15,2014-10-22 09:00:00,
2014-10-22 03:10:00,55.5,49.8,30.06,South,177,0.0,0.0,81,0.00,,,0.00,Wunderground v.1.15,2014-10-22 09:10:00,
2014-10-22 03:20:00,55.3,49.9,30.05,South,177,0.0,0.0,82,0.00,,,0.00,Wunderground v.1.15,2014-10-22 09:20:00,
2014-10-22 03:30:00,55.2,49.8,30.05,South,177,0.0,0.0,82,0.00,,,0.00,Wunderground v.1.15,2014-10-22 09:30:00,
2014-10-22 03:40:00,55.1,49.7,30.06,South,177,0.0,4.0,82,0.00,,,0.00,Wunderground v.1.15,2014-10-22 09:40:00,
2014-10-22 03:45:00,55.0,49.6,30.06,South,177,0.0,4.0,82,0.00,,,0.00,Wunderground v.1.15,2014-10-22 09:45:00,
2014-10-22 03:55:00,54.8,49.4,30.06,South,177,0.0,4.0,82,0.00,,,0.00,Wunderground v.1.15,2014-10-22 09:55:00,
2014-10-22 04:00:00,54.7,49.6,30.06,South,177,0.0,4.0,83,0.00,,,0.00,Wunderground v.1.15,2014-10-22 10:00:00,
2014-10-22 04:10:00,54.6,49.5,30.06,South,177,0.0,4.0,83,0.00,,,0.00,Wunderground v.1.15,2014-10-22 10:10:00,
2014-10-22 04:15:00,54.5,49.4,30.06,South,177,0.0,4.0,83,0.00,,,0.00,Wunderground v.1.15,2014-10-22 10:15:00,
2014-10-22 04:25:00,54.4,49.3,30.07,South,177,1.0,4.0,83,0.00,,,0.00,Wunderground v.1.15,2014-10-22 10:25:00,
2014-10-22 04:35:00,54.6,49.2,30.07,South,177,1.0,2.0,82,0.00,,,0.00,Wunderground v.1.15,2014-10-22 10:35:00,
2014-10-22 04:45:00,54.8,49.4,30.07,South,177,0.0,2.0,82,0.00,,,0.00,Wunderground v.1.15,2014-10-22 10:45:00,
2014-10-22 04:55:00,54.8,49.4,30.07,South,177,0.0,2.0,82,0.00,,,0.00,Wunderground v.1.15,2014-10-22 10:55:00,
2014-10-22 05:05:00,54.8,49.4,30.08,South,177,0.0,2.0,82,0.00,,,0.00,Wunderground v.1.15,2014-10-22 11:05:00,
2014-10-22 05:15:00,54.9,49.5,30.08,South,177,0.0,2.0,82,0.00,,,0.00,Wunderground v.1.15,2014-10-22 11:15:00,
2014-10-22 05:20:00,54.8,49.4,30.08,South,177,0.0,2.0,82,0.00,,,0.00,Wunderground v.1.15,2014-10-22 11:20:00,
2014-10-22 05:30:00,54.7,49.6,30.08,South,177,0.0,0.0,83,0.00,,,0.00,Wunderground v.1.15,2014-10-22 11:30:00,
2014-10-22 05:35:00,54.5,49.4,30.08,South,177,0.0,2.0,83,0.00,,,0.00,Wunderground v.1.15,2014-10-22 11:35:00,
2014-10-22 05:45:00,54.1,49.4,30.08,South,177,0.0,2.0,84,0.00,,,0.00,Wunderground v.1.15,2014-10-22 11:45:00,
2014-10-22 05:50:00,53.8,49.1,30.09,South,177,0.0,2.0,84,0.00,,,0.00,Wunderground v.1.15,2014-10-22 11:50:00,
2014-10-22 06:00:00,53.5,49.1,30.09,South,177,1.0,1.0,85,0.00,,,0.00,Wunderground v.1.15,2014-10-22 12:00:00,
2014-10-22 06:10:00,53.2,48.8,30.09,South,177,0.0,2.0,85,0.00,,,0.00,Wunderground v.1.15,2014-10-22 12:10:00,
2014-10-22 06:20:00,52.8,48.4,30.09,South,177,0.0,2.0,85,0.00,,,0.00,Wunderground v.1.15,2014-10-22 12:20:00,
2014-10-22 06:30:00,52.3,48.2,30.10,South,177,0.0,0.0,86,0.00,,,0.00,Wunderground v.1.15,2014-10-22 12:30:00,
2014-10-22 06:40:00,51.9,47.8,30.10,South,177,0.0,3.0,86,0.00,,,0.00,Wunderground v.1.15,2014-10-22 12:40:00,
2014-10-22 06:50:00,51.5,47.5,30.10,South,177,0.0,3.0,86,0.00,,,0.00,Wunderground v.1.15,2014-10-22 12:50:00,
2014-10-22 06:55:00,51.1,47.1,30.10,South,177,0.0,3.0,86,0.00,,,0.00,Wunderground v.1.15,2014-10-22 12:55:00,
2014-10-22 07:05:00,50.7,46.7,30.11,South,177,0.0,3.0,86,0.00,,,0.00,Wunderground v.1.15,2014-10-22 13:05:00,
2014-10-22 07:15:00,50.5,46.8,30.11,South,177,1.0,3.0,87,0.00,,,0.00,Wunderground v.1.15,2014-10-22 13:15:00,
2014-10-22 07:25:00,50.5,46.8,30.11,South,177,0.0,3.0,87,0.00,,,0.00,Wunderground v.1.15,2014-10-22 13:25:00,
2014-10-22 07:30:00,50.4,46.7,30.11,South,177,0.0,0.0,87,0.00,,,0.00,Wunderground v.1.15,2014-10-22 13:30:00,
2014-10-22 07:35:00,50.4,46.7,30.12,South,177,0.0,1.0,87,0.00,,,0.00,Wunderground v.1.15,2014-10-22 13:35:00,
2014-10-22 07:45:00,50.4,46.7,30.13,South,177,1.0,3.0,87,0.00,,,0.00,Wunderground v.1.15,2014-10-22 13:45:00,
2014-10-22 07:55:00,50.9,47.2,30.13,South,177,0.0,3.0,87,0.00,,,0.00,Wunderground v.1.15,2014-10-22 13:55:00,
2014-10-22 08:00:00,51.4,47.4,30.13,South,177,0.0,3.0,86,0.00,,,0.00,Wunderground v.1.15,2014-10-22 14:00:00,
2014-10-22 08:05:00,51.7,47.3,30.14,South,177,1.0,3.0,85,0.00,,,0.00,Wunderground v.1.15,2014-10-22 14:05:00,
2014-10-22 08:15:00,52.5,47.8,30.14,South,177,1.0,3.0,84,0.00,,,0.00,Wunderground v.1.15,2014-10-22 14:15:00,
2014-10-22 08:20:00,53.1,48.1,30.15,South,177,0.0,3.0,83,0.00,,,0.00,Wunderground v.1.15,2014-10-22 14:20:00,
2014-10-22 08:30:00,53.9,48.5,30.15,South,177,2.0,3.0,82,0.00,,,0.00,Wunderground v.1.15,2014-10-22 14:30:00,
2014-10-22 08:40:00,54.7,49.0,30.16,South,176,3.0,4.0,81,0.00,,,0.00,Wunderground v.1.15,2014-10-22 14:40:00,
2014-10-22 08:50:00,55.2,49.5,30.16,South,176,3.0,3.0,81,0.00,,,0.00,Wunderground v.1.15,2014-10-22 14:50:00,
2014-10-22 08:55:00,55.5,49.4,30.16,South,175,2.0,4.0,80,0.00,,,0.00,Wunderground v.1.15,2014-10-22 14:55:00,
2014-10-22 09:05:00,56.2,49.8,30.17,South,174,2.0,3.0,79,0.00,,,0.00,Wunderground v.1.15,2014-10-22 15:05:00,
2014-10-22 09:15:00,56.9,49.8,30.16,South,174,2.0,4.0,77,0.00,,,0.00,Wunderground v.1.15,2014-10-22 15:15:00,
2014-10-22 09:25:00,57.3,50.1,30.16,South,174,3.0,4.0,77,0.00,,,0.00,Wunderground v.1.15,2014-10-22 15:25:00,
2014-10-22 09:30:00,57.9,50.4,30.16,South,174,2.0,2.0,76,0.00,,,0.00,Wunderground v.1.15,2014-10-22 15:30:00,
2014-10-22 09:35:00,58.3,50.0,30.16,South,174,1.0,7.0,74,0.00,,,0.00,Wunderground v.1.15,2014-10-22 15:35:00,
2014-10-22 09:45:00,59.1,50.5,30.16,South,174,1.0,7.0,73,0.00,,,0.00,Wunderground v.1.15,2014-10-22 15:45:00,
2014-10-22 09:55:00,60.1,51.0,30.16,South,174,1.0,3.0,72,0.00,,,0.00,Wunderground v.1.15,2014-10-22 15:55:00,
2014-10-22 10:00:00,60.4,51.0,30.16,South,174,1.0,7.0,71,0.00,,,0.00,Wunderground v.1.15,2014-10-22 16:00:00,
2014-10-22 10:10:00,61.1,51.2,30.16,South,174,1.0,1.0,70,0.00,,,0.00,Wunderground v.1.15,2014-10-22 16:10:00,
2014-10-22 10:20:00,61.6,51.7,30.17,South,174,1.0,1.0,70,0.00,,,0.00,Wunderground v.1.15,2014-10-22 16:20:00,
2014-10-22 10:30:00,62.0,51.7,30.16,South,174,1.0,1.0,69,0.00,,,0.00,Wunderground v.1.15,2014-10-22 16:30:00,
2014-10-22 10:35:00,62.0,51.7,30.16,South,174,1.0,6.0,69,0.00,,,0.00,Wunderground v.1.15,2014-10-22 16:35:00,
2014-10-22 10:45:00,62.8,51.7,30.16,South,174,1.0,6.0,67,0.00,,,0.00,Wunderground v.1.15,2014-10-22 16:45:00,
2014-10-22 10:55:00,63.2,52.1,30.16,South,174,1.0,6.0,67,0.00,,,0.00,Wunderground v.1.15,2014-10-22 16:55:00,
2014-10-22 11:05:00,64.2,51.8,30.16,South,174,0.0,6.0,64,0.00,,,0.00,Wunderground v.1.15,2014-10-22 17:05:00,
2014-10-22 11:10:00,65.1,52.2,30.15,South,174,1.0,1.0,63,0.00,,,0.00,Wunderground v.1.15,2014-10-22 17:10:00,
2014-10-22 11:20:00,65.4,51.1,30.15,South,174,2.0,6.0,60,0.00,,,0.00,Wunderground v.1.15,2014-10-22 17:20:00,
2014-10-22 11:30:00,65.3,50.6,30.15,South,174,2.0,2.0,59,0.00,,,0.00,Wunderground v.1.15,2014-10-22 17:30:00,
2014-10-22 11:40:00,66.0,51.3,30.15,South,174,1.0,1.0,59,0.00,,,0.00,Wunderground v.1.15,2014-10-22 17:40:00,
2014-10-22 11:45:00,66.9,51.2,30.15,South,174,1.0,2.0,57,0.00,,,0.00,Wunderground v.1.15,2014-10-22 17:45:00,
2014-10-22 11:55:00,67.1,51.4,30.15,South,173,2.0,6.0,57,0.00,,,0.00,Wunderground v.1.15,2014-10-22 17:55:00,
2014-10-22 12:05:00,67.4,51.6,30.14,South,176,2.0,6.0,57,0.00,,,0.00,Wunderground v.1.15,2014-10-22 18:05:00,
2014-10-22 12:15:00,67.9,51.1,30.14,South,176,2.0,6.0,55,0.00,,,0.00,Wunderground v.1.15,2014-10-22 18:15:00,
2014-10-22 12:20:00,68.3,51.0,30.13,South,176,1.0,6.0,54,0.00,,,0.00,Wunderground v.1.15,2014-10-22 18:20:00,
2014-10-22 12:30:00,69.2,49.8,30.13,South,176,2.0,2.0,50,0.00,,,0.00,Wunderground v.1.15,2014-10-22 18:30:00,
2014-10-22 12:40:00,69.2,49.8,30.12,South,176,2.0,7.0,50,0.00,,,0.00,Wunderground v.1.15,2014-10-22 18:40:00,
2014-10-22 12:50:00,68.8,49.4,30.12,South,176,2.0,2.0,50,0.00,,,0.00,Wunderground v.1.15,2014-10-22 18:50:00,
2014-10-22 12:55:00,69.5,49.5,30.11,South,176,1.0,4.0,49,0.00,,,0.00,Wunderground v.1.15,2014-10-22 18:55:00,
2014-10-22 13:05:00,70.0,49.4,30.10,South,176,1.0,7.0,48,0.00,,,0.00,Wunderground v.1.15,2014-10-22 19:05:00,
2014-10-22 13:15:00,70.9,49.7,30.09,South,176,1.0,2.0,47,0.00,,,0.00,Wunderground v.1.15,2014-10-22 19:15:00,
2014-10-22 13:25:00,71.2,48.8,30.09,South,176,3.0,3.0,45,0.00,,,0.00,Wunderground v.1.15,2014-10-22 19:25:00,
2014-10-22 13:30:00,71.6,49.1,30.09,South,176,2.0,4.0,45,0.00,,,0.00,Wunderground v.1.15,2014-10-22 19:30:00,
2014-10-22 13:40:00,70.7,48.3,30.08,South,176,3.0,3.0,45,0.00,,,0.00,Wunderground v.1.15,2014-10-22 19:40:00,
2014-10-22 13:45:00,71.0,48.6,30.08,South,176,2.0,5.0,45,0.00,,,0.00,Wunderground v.1.15,2014-10-22 19:45:00,
2014-10-22 13:55:00,71.5,46.6,30.07,South,175,2.0,5.0,41,0.00,,,0.00,Wunderground v.1.15,2014-10-22 19:55:00,
2014-10-22 14:00:00,72.1,49.0,30.07,South,175,3.0,5.0,44,0.00,,,0.00,Wunderground v.1.15,2014-10-22 20:00:00,
2014-10-22 14:10:00,72.0,47.0,30.07,South,175,3.0,5.0,41,0.00,,,0.00,Wunderground v.1.15,2014-10-22 20:10:00,
2014-10-22 14:20:00,71.8,46.2,30.07,South,175,3.0,5.0,40,0.00,,,0.00,Wunderground v.1.15,2014-10-22 20:20:00,
2014-10-22 14:25:00,71.8,45.5,30.06,South,175,3.0,5.0,39,0.00,,,0.00,Wunderground v.1.15,2014-10-22 20:25:00,
2014-10-22 14:30:00,72.0,46.3,30.06,South,169,4.0,4.0,40,0.00,,,0.00,Wunderground v.1.15,2014-10-22 20:30:00,
2014-10-22 14:40:00,73.0,45.2,30.06,SSE,167,3.0,7.0,37,0.00,,,0.00,Wunderground v.1.15,2014-10-22 20:40:00,
2014-10-22 14:50:00,73.4,44.1,30.06,SSE,168,4.0,7.0,35,0.00,,,0.00,Wunderground v.1.15,2014-10-22 20:50:00,
2014-10-22 14:55:00,73.6,43.5,30.06,SSE,165,4.0,7.0,34,0.00,,,0.00,Wunderground v.1.15,2014-10-22 20:55:00,
2014-10-22 15:05:00,73.8,45.2,30.06,SSE,168,3.0,7.0,36,0.00,,,0.00,Wunderground v.1.15,2014-10-22 21:05:00,
2014-10-22 15:10:00,73.7,45.1,30.05,South,169,3.0,7.0,36,0.00,,,0.00,Wunderground v.1.15,2014-10-22 21:10:00,
2014-10-22 15:20:00,73.7,45.1,30.05,South,169,4.0,4.0,36,0.00,,,0.00,Wunderground v.1.15,2014-10-22 21:20:00,
2014-10-22 15:25:00,74.0,44.6,30.05,South,171,4.0,5.0,35,0.00,,,0.00,Wunderground v.1.15,2014-10-22 21:25:00,
2014-10-22 15:35:00,73.6,44.2,30.05,South,172,5.0,9.0,35,0.00,,,0.00,Wunderground v.1.15,2014-10-22 21:35:00,
2014-10-22 15:45:00,74.0,41.4,30.05,SSW,208,4.0,9.0,31,0.00,,,0.00,Wunderground v.1.15,2014-10-22 21:45:00,
2014-10-22 15:55:00,74.2,40.8,30.05,SW,232,4.0,9.0,30,0.00,,,0.00,Wunderground v.1.15,2014-10-22 21:55:00,
2014-10-22 16:05:00,74.0,40.6,30.05,West,269,5.0,6.0,30,0.00,,,0.00,Wunderground v.1.15,2014-10-22 22:05:00,
2014-10-22 16:15:00,74.9,40.5,30.05,WSW,252,5.0,6.0,29,0.00,,,0.00,Wunderground v.1.15,2014-10-22 22:15:00,
2014-10-22 16:25:00,75.1,40.7,30.05,West,271,5.0,9.0,29,0.00,,,0.00,Wunderground v.1.15,2014-10-22 22:25:00,
2014-10-22 16:35:00,75.2,40.7,30.05,West,261,5.0,11.0,29,0.00,,,0.00,Wunderground v.1.15,2014-10-22 22:35:00,
2014-10-22 16:40:00,74.8,40.4,30.04,West,263,4.0,11.0,29,0.00,,,0.00,Wunderground v.1.15,2014-10-22 22:40:00,
2014-10-22 16:45:00,74.7,41.2,30.04,West,264,4.0,11.0,30,0.00,,,0.00,Wunderground v.1.15,2014-10-22 22:45:00,
2014-10-22 16:50:00,74.4,40.9,30.05,West,259,5.0,11.0,30,0.00,,,0.00,Wunderground v.1.15,2014-10-22 22:50:00,
2014-10-22 17:00:00,74.7,41.2,30.05,West,259,4.0,11.0,30,0.00,,,0.00,Wunderground v.1.15,2014-10-22 23:00:00,
2014-10-22 17:10:00,74.9,41.4,30.04,West,259,4.0,4.0,30,0.00,,,0.00,Wunderground v.1.15,2014-10-22 23:10:00,
2014-10-22 17:15:00,75.0,41.5,30.04,West,262,3.0,6.0,30,0.00,,,0.00,Wunderground v.1.15,2014-10-22 23:15:00,
2014-10-22 17:20:00,74.6,41.1,30.04,West,261,4.0,4.0,30,0.00,,,0.00,Wunderground v.1.15,2014-10-22 23:20:00,
2014-10-22 17:30:00,74.4,40.9,30.05,West,264,5.0,7.0,30,0.00,,,0.00,Wunderground v.1.15,2014-10-22 23:30:00,
2014-10-22 17:40:00,74.3,41.7,30.05,West,266,4.0,10.0,31,0.00,,,0.00,Wunderground v.1.15,2014-10-22 23:40:00,
2014-10-22 17:50:00,74.0,41.4,30.05,West,266,4.0,10.0,31,0.00,,,0.00,Wunderground v.1.15,2014-10-22 23:50:00,
2014-10-22 18:00:00,72.9,41.3,30.05,West,266,3.0,10.0,32,0.00,,,0.00,Wunderground v.1.15,2014-10-23 00:00:00,
2014-10-22 18:05:00,72.4,41.7,30.05,West,266,2.0,10.0,33,0.00,,,0.00,Wunderground v.1.15,2014-10-23 00:05:00,
2014-10-22 18:15:00,71.9,42.0,30.05,West,266,1.0,10.0,34,0.00,,,0.00,Wunderground v.1.15,2014-10-23 00:15:00,
2014-10-22 18:20:00,71.6,41.7,30.04,West,266,1.0,10.0,34,0.00,,,0.00,Wunderground v.1.15,2014-10-23 00:20:00,
2014-10-22 18:30:00,70.8,41.8,30.05,West,266,0.0,0.0,35,0.00,,,0.00,Wunderground v.1.15,2014-10-23 00:30:00,
2014-10-22 18:40:00,69.9,42.4,30.05,West,266,0.0,7.0,37,0.00,,,0.00,Wunderground v.1.15,2014-10-23 00:40:00,
2014-10-22 18:45:00,69.4,42.7,30.05,West,266,0.0,7.0,38,0.00,,,0.00,Wunderground v.1.15,2014-10-23 00:45:00,
2014-10-22 18:50:00,69.0,43.7,30.05,West,266,0.0,7.0,40,0.00,,,0.00,Wunderground v.1.15,2014-10-23 00:50:00,
2014-10-22 19:00:00,68.3,42.4,30.06,West,266,0.0,7.0,39,0.00,,,0.00,Wunderground v.1.15,2014-10-23 01:00:00,
2014-10-22 19:05:00,68.3,42.4,30.06,West,266,0.0,7.0,39,0.00,,,0.00,Wunderground v.1.15,2014-10-23 01:05:00,
2014-10-22 19:15:00,67.8,42.6,30.06,West,266,0.0,7.0,40,0.00,,,0.00,Wunderground v.1.15,2014-10-23 01:15:00,
2014-10-22 19:25:00,66.9,43.0,30.07,West,266,0.0,7.0,42,0.00,,,0.00,Wunderground v.1.15,2014-10-23 01:25:00,
2014-10-22 19:30:00,66.7,42.9,30.07,West,266,0.0,3.0,42,0.00,,,0.00,Wunderground v.1.15,2014-10-23 01:30:00,
2014-10-22 19:40:00,66.4,42.6,30.07,West,266,1.0,2.0,42,0.00,,,0.00,Wunderground v.1.15,2014-10-23 01:40:00,
2014-10-22 19:50:00,65.2,43.3,30.08,West,266,1.0,2.0,45,0.00,,,0.00,Wunderground v.1.15,2014-10-23 01:50:00,
2014-10-22 20:00:00,64.8,42.9,30.08,West,266,0.0,2.0,45,0.00,,,0.00,Wunderground v.1.15,2014-10-23 02:00:00,
2014-10-22 20:10:00,64.5,42.7,30.08,West,266,1.0,1.0,45,0.00,,,0.00,Wunderground v.1.15,2014-10-23 02:10:00,
2014-10-22 20:15:00,64.2,43.0,30.08,West,266,0.0,2.0,46,0.00,,,0.00,Wunderground v.1.15,2014-10-23 02:15:00,
2014-10-22 20:20:00,63.8,43.2,30.08,West,266,0.0,2.0,47,0.00,,,0.00,Wunderground v.1.15,2014-10-23 02:20:00,
2014-10-22 20:30:00,63.3,42.7,30.09,West,266,0.0,0.0,47,0.00,,,0.00,Wunderground v.1.15,2014-10-23 02:30:00,
2014-10-22 20:40:00,62.9,42.9,30.09,West,266,0.0,3.0,48,0.00,,,0.00,Wunderground v.1.15,2014-10-23 02:40:00,
2014-10-22 20:50:00,62.4,43.0,30.09,West,266,0.0,3.0,49,0.00,,,0.00,Wunderground v.1.15,2014-10-23 02:50:00,
2014-10-22 21:00:00,62.0,42.6,30.10,West,266,0.0,3.0,49,0.00,,,0.00,Wunderground v.1.15,2014-10-23 03:00:00,
2014-10-22 21:10:00,61.4,42.6,30.10,West,266,0.0,3.0,50,0.00,,,0.00,Wunderground v.1.15,2014-10-23 03:10:00,
2014-10-22 21:20:00,60.9,42.6,30.10,West,266,0.0,3.0,51,0.00,,,0.00,Wunderground v.1.15,2014-10-23 03:20:00,
2014-10-22 21:30:00,60.5,43.3,30.11,West,266,0.0,0.0,53,0.00,,,0.00,Wunderground v.1.15,2014-10-23 03:30:00,
2014-10-22 21:35:00,60.4,43.2,30.11,West,266,0.0,4.0,53,0.00,,,0.00,Wunderground v.1.15,2014-10-23 03:35:00,
2014-10-22 21:50:00,60.2,42.5,30.11,West,266,0.0,4.0,52,0.00,,,0.00,Wunderground v.1.15,2014-10-23 03:50:00,
2014-10-22 21:55:00,60.1,42.9,30.11,West,266,0.0,0.0,53,0.00,,,0.00,Wunderground v.1.15,2014-10-23 03:55:00,
2014-10-22 22:00:00,60.0,43.3,30.11,West,266,0.0,0.0,54,0.00,,,0.00,Wunderground v.1.15,2014-10-23 04:00:00,